Time;durP1;ratioP1;P1;durP2;ratioP2;P2;SDS_P1;SDS_P2;PMS_P1;PMS_P2;Temp;Humidity;BMP_temperature;BMP_pressure;BME280_temperature;BME280_humidity;BME280_pressure;Samples;Min_cycle;Max_cycle;Signal;HPM_P1;HPM_P2
2021/10/27 00:01:21;;;;;;;7.00;6.33;;;11.10;99.90;;;;;;5004923;28;20206;-72
2021/10/27 00:03:47;;;;;;;8.97;6.00;;;11.00;99.90;;;;;;5016592;28;20200;-72
2021/10/27 00:06:12;;;;;;;10.00;6.40;;;11.10;99.90;;;;;;5018614;28;21086;-72
2021/10/27 00:08:38;;;;;;;8.27;5.40;;;11.20;99.90;;;;;;5016152;28;20459;-71
2021/10/27 00:11:04;;;;;;;7.17;5.77;;;11.00;99.90;;;;;;5020114;28;20207;-71
2021/10/27 00:13:29;;;;;;;15.27;5.67;;;10.90;99.90;;;;;;5017251;28;20326;-72
2021/10/27 00:15:55;;;;;;;7.60;5.83;;;10.90;99.90;;;;;;5016129;28;20193;-71
2021/10/27 00:18:21;;;;;;;8.00;5.20;;;10.80;99.90;;;;;;5016941;28;20227;-72
2021/10/27 00:20:47;;;;;;;7.20;5.60;;;10.70;99.90;;;;;;5021616;28;21280;-71
2021/10/27 00:23:12;;;;;;;10.73;6.30;;;10.50;99.90;;;;;;5023491;28;20189;-71
2021/10/27 00:25:38;;;;;;;5.50;5.00;;;10.50;99.90;;;;;;5006936;28;20188;-72
2021/10/27 00:28:04;;;;;;;10.77;5.10;;;10.50;99.90;;;;;;5024631;28;20215;-74
2021/10/27 00:30:29;;;;;;;7.70;5.47;;;10.40;99.90;;;;;;5019986;28;20271;-73
2021/10/27 00:32:57;;;;;;;14.33;5.90;;;10.40;99.90;;;;;;5021540;28;20188;-72
2021/10/27 00:35:23;;;;;;;7.23;5.40;;;10.30;99.90;;;;;;5009903;28;20185;-71
2021/10/27 00:37:48;;;;;;;6.70;5.00;;;10.40;99.90;;;;;;5023194;28;20506;-72
2021/10/27 00:40:15;;;;;;;7.90;5.70;;;10.40;99.90;;;;;;5008402;28;20471;-74
2021/10/27 00:42:41;;;;;;;6.70;6.00;;;10.10;99.90;;;;;;5020995;28;20601;-73
2021/10/27 00:45:07;;;;;;;5.47;4.70;;;10.00;99.90;;;;;;5024394;28;20430;-72
2021/10/27 00:47:33;;;;;;;7.80;5.07;;;10.10;99.90;;;;;;5024543;28;20774;-73
2021/10/27 00:49:59;;;;;;;6.90;5.13;;;10.30;99.90;;;;;;5021785;28;21040;-74
2021/10/27 00:52:24;;;;;;;7.20;5.37;;;10.40;99.90;;;;;;5020803;28;20196;-75
2021/10/27 00:54:51;;;;;;;7.70;5.60;;;10.40;99.90;;;;;;5023342;28;20193;-75
2021/10/27 00:57:21;;;;;;;5.90;5.30;;;10.30;99.90;;;;;;5022366;28;20792;-75
2021/10/27 00:59:47;;;;;;;8.30;6.53;;;10.30;99.90;;;;;;5024886;28;20467;-74
2021/10/27 01:02:14;;;;;;;5.90;5.30;;;10.40;99.90;;;;;;5022371;28;20548;-73
2021/10/27 01:04:41;;;;;;;7.43;5.77;;;10.50;99.90;;;;;;5026537;28;20183;-73
2021/10/27 01:07:07;;;;;;;7.93;5.47;;;10.20;99.90;;;;;;5009064;28;20439;-74
2021/10/27 01:09:34;;;;;;;7.53;5.40;;;10.10;99.90;;;;;;5008178;28;20460;-74
2021/10/27 01:12:00;;;;;;;7.80;5.57;;;10.00;99.90;;;;;;5024412;28;20518;-74
2021/10/27 01:14:34;;;;;;;9.97;5.50;;;10.20;99.90;;;;;;5009355;28;20498;-76
2021/10/27 01:17:00;;;;;;;7.57;5.10;;;10.40;99.90;;;;;;5020674;28;20439;-73
2021/10/27 01:19:26;;;;;;;5.50;4.63;;;10.50;99.90;;;;;;5020332;28;20478;-74
2021/10/27 01:21:53;;;;;;;6.00;4.50;;;10.60;99.90;;;;;;5025468;28;20416;-74
2021/10/27 01:24:18;;;;;;;6.33;4.70;;;10.40;99.90;;;;;;5021775;28;20214;-72
2021/10/27 01:26:44;;;;;;;9.23;4.70;;;10.20;99.90;;;;;;5022403;28;20959;-72
2021/10/27 01:29:10;;;;;;;9.13;6.03;;;10.40;99.90;;;;;;5026794;28;20799;-73
2021/10/27 01:31:36;;;;;;;9.60;7.33;;;10.30;99.90;;;;;;5007413;28;20193;-74
2021/10/27 01:34:01;;;;;;;8.60;5.10;;;10.30;99.90;;;;;;5007019;28;20188;-75
2021/10/27 01:36:29;;;;;;;10.60;5.17;;;10.10;99.90;;;;;;5017069;28;20977;-72
2021/10/27 01:38:55;;;;;;;5.87;5.33;;;9.90;99.90;;;;;;5011379;28;20223;-73
2021/10/27 01:41:21;;;;;;;7.57;6.07;;;9.90;99.90;;;;;;5023158;28;20942;-73
2021/10/27 01:43:53;;;;;;;8.17;6.03;;;10.00;99.90;;;;;;5006374;28;20726;-74
2021/10/27 01:46:33;;;;;;;6.30;5.53;;;10.10;99.90;;;;;;5019056;28;20213;-73
2021/10/27 01:49:00;;;;;;;7.63;6.07;;;9.90;99.90;;;;;;5024592;28;20959;-73
2021/10/27 01:51:27;;;;;;;7.33;5.60;;;9.80;99.90;;;;;;5022065;28;21002;-73
2021/10/27 01:53:54;;;;;;;8.90;6.60;;;10.00;99.90;;;;;;5019637;28;20443;-73
2021/10/27 01:56:20;;;;;;;9.10;6.40;;;9.90;99.90;;;;;;4999222;28;20447;-73
2021/10/27 01:58:46;;;;;;;7.13;5.13;;;9.90;99.90;;;;;;5019749;28;20472;-73
2021/10/27 02:01:12;;;;;;;7.00;5.80;;;9.80;99.90;;;;;;5008584;28;20447;-73
2021/10/27 02:03:38;;;;;;;6.00;5.27;;;9.80;99.90;;;;;;5022622;28;20517;-73
2021/10/27 02:06:04;;;;;;;6.50;5.17;;;10.00;99.90;;;;;;5020458;28;20189;-72
2021/10/27 02:08:30;;;;;;;7.90;4.77;;;9.80;99.90;;;;;;5022647;28;20208;-72
2021/10/27 02:10:56;;;;;;;6.23;5.07;;;9.80;99.90;;;;;;5024856;28;20435;-72
2021/10/27 02:13:22;;;;;;;7.40;5.30;;;9.70;99.90;;;;;;5018039;28;20436;-73
2021/10/27 02:15:47;;;;;;;5.53;4.93;;;9.70;99.90;;;;;;5019747;28;20930;-72
2021/10/27 02:18:13;;;;;;;6.20;4.77;;;9.50;99.90;;;;;;5021593;28;20254;-73
2021/10/27 02:20:39;;;;;;;6.03;4.57;;;9.50;99.90;;;;;;5023291;28;20195;-74
2021/10/27 02:23:04;;;;;;;5.23;4.73;;;9.60;99.90;;;;;;5018976;28;20181;-73
2021/10/27 02:25:30;;;;;;;4.73;4.33;;;9.60;99.90;;;;;;5022662;28;20200;-72
2021/10/27 02:27:56;;;;;;;5.33;4.70;;;9.50;99.90;;;;;;5022922;28;20204;-72
2021/10/27 02:30:21;;;;;;;6.57;5.20;;;9.40;99.90;;;;;;5024408;28;20659;-73
2021/10/27 02:32:47;;;;;;;5.37;4.20;;;9.40;99.90;;;;;;5002367;28;20212;-73
2021/10/27 02:35:13;;;;;;;6.00;5.40;;;9.40;99.90;;;;;;5020595;28;20189;-73
2021/10/27 02:37:39;;;;;;;6.40;4.23;;;9.50;99.90;;;;;;5018671;28;20450;-73
2021/10/27 02:40:06;;;;;;;5.67;4.30;;;9.40;99.90;;;;;;5005943;28;20215;-73
2021/10/27 02:42:31;;;;;;;8.40;5.10;;;9.40;99.90;;;;;;5023028;28;20207;-72
2021/10/27 02:44:57;;;;;;;5.57;4.53;;;9.30;99.90;;;;;;5000845;28;20451;-73
2021/10/27 02:47:23;;;;;;;7.57;4.20;;;9.30;99.90;;;;;;5003449;28;20659;-72
2021/10/27 02:49:48;;;;;;;5.50;4.20;;;9.30;99.90;;;;;;5019666;28;20189;-72
2021/10/27 02:52:14;;;;;;;5.50;4.00;;;9.40;99.90;;;;;;5020173;28;20259;-72
2021/10/27 02:54:40;;;;;;;5.70;5.10;;;9.40;99.90;;;;;;5017712;28;20193;-72
2021/10/27 02:57:05;;;;;;;5.00;4.50;;;9.70;99.90;;;;;;5007365;28;20738;-73
2021/10/27 02:59:32;;;;;;;6.30;4.57;;;9.70;99.90;;;;;;5021421;28;20212;-73
2021/10/27 03:01:58;;;;;;;8.00;4.77;;;9.50;99.90;;;;;;5021281;28;20442;-73
2021/10/27 03:04:23;;;;;;;10.43;4.60;;;9.50;99.90;;;;;;5021416;28;20442;-73
2021/10/27 03:06:49;;;;;;;5.70;4.23;;;9.70;99.90;;;;;;5020621;28;20192;-74
2021/10/27 03:09:15;;;;;;;5.17;3.97;;;9.80;99.90;;;;;;5006063;28;20283;-75
2021/10/27 03:11:41;;;;;;;6.03;4.77;;;9.70;99.90;;;;;;5006156;28;20290;-75
2021/10/27 03:14:07;;;;;;;5.37;4.60;;;9.60;99.90;;;;;;5021218;28;20427;-75
2021/10/27 03:16:33;;;;;;;8.73;4.77;;;9.60;99.90;;;;;;5021078;28;20251;-74
2021/10/27 03:18:59;;;;;;;5.10;4.47;;;9.70;99.90;;;;;;5023712;28;20470;-73
2021/10/27 03:21:25;;;;;;;6.73;5.10;;;9.50;99.90;;;;;;5008460;28;20692;-73
2021/10/27 03:23:50;;;;;;;6.23;4.67;;;9.90;99.90;;;;;;5009967;28;20275;-74
2021/10/27 03:26:16;;;;;;;9.27;4.90;;;9.70;99.90;;;;;;5023496;28;20777;-73
2021/10/27 03:28:42;;;;;;;6.27;4.63;;;9.80;99.90;;;;;;5025063;28;20211;-73
2021/10/27 03:31:08;;;;;;;4.50;4.10;;;9.60;99.90;;;;;;5020654;28;20279;-71
2021/10/27 03:33:35;;;;;;;4.83;4.33;;;9.70;99.90;;;;;;5023533;28;20196;-72
2021/10/27 03:36:00;;;;;;;5.00;4.40;;;9.60;99.90;;;;;;5022595;28;20263;-71
2021/10/27 03:38:26;;;;;;;6.47;5.53;;;9.60;99.90;;;;;;5023880;28;21105;-72
2021/10/27 03:40:52;;;;;;;4.80;4.20;;;9.70;99.90;;;;;;5023855;28;20608;-72
2021/10/27 03:43:19;;;;;;;9.00;4.47;;;9.60;99.90;;;;;;5021674;28;20189;-72
2021/10/27 03:45:45;;;;;;;6.83;4.07;;;9.70;99.90;;;;;;5022485;28;20275;-72
2021/10/27 03:48:11;;;;;;;5.33;4.30;;;9.80;99.90;;;;;;5024782;28;20466;-73
2021/10/27 03:50:37;;;;;;;5.00;3.93;;;9.90;99.90;;;;;;5004665;28;20432;-73
2021/10/27 03:53:03;;;;;;;6.17;4.60;;;10.10;99.90;;;;;;5022685;28;20200;-73
2021/10/27 03:55:29;;;;;;;5.47;3.90;;;10.10;99.90;;;;;;5025514;28;20419;-73
2021/10/27 03:57:58;;;;;;;4.20;3.80;;;9.90;99.90;;;;;;5025580;28;20456;-72
2021/10/27 04:00:25;;;;;;;8.07;4.50;;;9.90;99.90;;;;;;5024949;28;20221;-72
2021/10/27 04:02:51;;;;;;;6.70;4.47;;;10.00;99.90;;;;;;5022459;28;20419;-73
2021/10/27 04:05:17;;;;;;;8.40;4.50;;;10.00;99.90;;;;;;5022717;28;20443;-73
2021/10/27 04:07:42;;;;;;;5.57;4.67;;;10.20;99.90;;;;;;5004930;28;20240;-73
2021/10/27 04:10:12;;;;;;;8.20;5.43;;;9.80;99.90;;;;;;5023371;28;20477;-74
2021/10/27 04:12:40;;;;;;;7.00;5.10;;;9.90;99.90;;;;;;5024607;28;21187;-73
2021/10/27 04:15:08;;;;;;;8.90;4.90;;;9.90;99.90;;;;;;5021347;28;20843;-73
2021/10/27 04:17:34;;;;;;;8.70;6.20;;;10.00;99.90;;;;;;5024984;28;20470;-73
2021/10/27 04:20:01;;;;;;;6.07;5.47;;;10.10;99.90;;;;;;5022153;28;20553;-72
2021/10/27 04:22:27;;;;;;;8.10;5.20;;;9.90;99.90;;;;;;5021344;28;20431;-72
2021/10/27 04:24:53;;;;;;;8.33;5.77;;;9.90;99.90;;;;;;5023521;28;20515;-73
2021/10/27 04:27:18;;;;;;;6.43;5.70;;;9.70;99.90;;;;;;5022401;28;20194;-72
2021/10/27 04:29:44;;;;;;;9.57;5.93;;;9.60;99.90;;;;;;5018410;28;20224;-73
2021/10/27 04:32:10;;;;;;;9.93;5.80;;;9.90;99.90;;;;;;5006110;28;20279;-72
2021/10/27 04:34:36;;;;;;;7.20;5.57;;;10.00;99.90;;;;;;5019858;28;20307;-73
2021/10/27 04:37:02;;;;;;;9.47;5.13;;;10.10;99.90;;;;;;5019959;28;20965;-73
2021/10/27 04:39:27;;;;;;;7.50;4.97;;;10.10;99.90;;;;;;5004852;28;20220;-73
2021/10/27 04:41:53;;;;;;;6.83;5.47;;;10.00;99.90;;;;;;5018945;28;20656;-74
2021/10/27 04:44:18;;;;;;;9.80;5.97;;;10.00;99.90;;;;;;5021375;28;20256;-72
2021/10/27 04:46:44;;;;;;;6.63;4.90;;;10.10;99.90;;;;;;5020498;28;20196;-72
2021/10/27 04:49:10;;;;;;;7.23;5.40;;;10.10;99.90;;;;;;5023161;28;20221;-71
2021/10/27 04:51:36;;;;;;;5.67;4.70;;;10.30;99.90;;;;;;5006126;28;20200;-73
2021/10/27 04:54:01;;;;;;;6.90;4.80;;;10.20;99.90;;;;;;5024354;28;20288;-73
2021/10/27 04:56:29;;;;;;;7.27;4.80;;;10.20;99.90;;;;;;5023730;28;20189;-73
2021/10/27 04:58:54;;;;;;;6.00;5.40;;;10.10;99.90;;;;;;5021517;28;20238;-73
2021/10/27 05:01:20;;;;;;;7.83;4.67;;;10.10;99.90;;;;;;5019486;28;20463;-73
2021/10/27 05:03:46;;;;;;;5.30;4.40;;;10.20;99.90;;;;;;5023568;28;20272;-74
2021/10/27 05:06:12;;;;;;;6.13;4.90;;;10.30;99.90;;;;;;5022531;28;20250;-74
2021/10/27 05:08:39;;;;;;;6.77;5.47;;;10.30;99.90;;;;;;5020826;28;20295;-73
2021/10/27 05:11:05;;;;;;;6.53;5.30;;;10.30;99.90;;;;;;5019368;28;20518;-74
2021/10/27 05:13:30;;;;;;;6.37;4.83;;;10.30;99.90;;;;;;5020691;28;20489;-72
2021/10/27 05:15:57;;;;;;;6.13;4.60;;;10.40;99.90;;;;;;5021063;28;20446;-74
2021/10/27 05:18:22;;;;;;;5.77;4.83;;;10.40;99.90;;;;;;5021033;28;20726;-73
2021/10/27 05:20:48;;;;;;;7.40;5.93;;;10.40;99.90;;;;;;5018564;28;20423;-73
2021/10/27 05:23:14;;;;;;;7.53;5.07;;;10.40;99.90;;;;;;5021900;28;20679;-72
2021/10/27 05:25:40;;;;;;;8.57;5.93;;;10.30;99.90;;;;;;5020027;28;20180;-72
2021/10/27 05:28:06;;;;;;;6.60;5.50;;;10.40;99.90;;;;;;5020795;28;20877;-72
2021/10/27 05:30:32;;;;;;;8.53;5.93;;;10.40;99.90;;;;;;5020978;28;20452;-72
2021/10/27 05:32:58;;;;;;;7.53;5.73;;;10.30;99.90;;;;;;5021427;28;20435;-73
2021/10/27 05:35:29;;;;;;;6.20;5.23;;;10.10;99.90;;;;;;5019700;28;20451;-70
2021/10/27 05:37:55;;;;;;;8.77;4.87;;;10.30;99.90;;;;;;5021279;28;20451;-72
2021/10/27 05:40:24;;;;;;;7.73;5.00;;;10.40;99.90;;;;;;5020440;28;20519;-76
2021/10/27 05:42:51;;;;;;;5.83;5.20;;;10.30;99.90;;;;;;5009109;28;20482;-72
2021/10/27 05:45:18;;;;;;;6.20;5.00;;;10.50;99.90;;;;;;5016688;28;20846;-73
2021/10/27 05:47:47;;;;;;;6.40;5.20;;;10.50;99.90;;;;;;5020715;28;20458;-73
2021/10/27 05:55:28;;;;;;;5.43;4.93;;;10.40;99.90;;;;;;5018628;28;20276;-74
2021/10/27 05:57:54;;;;;;;6.10;5.50;;;10.30;99.90;;;;;;5021819;28;20849;-72
2021/10/27 06:00:20;;;;;;;8.40;4.77;;;10.20;99.90;;;;;;5004471;28;20463;-73
2021/10/27 06:02:45;;;;;;;9.03;5.60;;;10.40;99.90;;;;;;5018601;28;20443;-72
2021/10/27 06:05:11;;;;;;;8.90;6.10;;;10.10;99.90;;;;;;5019221;28;20225;-72
2021/10/27 06:07:38;;;;;;;7.23;5.27;;;10.00;99.90;;;;;;5018315;28;20227;-71
2021/10/27 06:10:05;;;;;;;5.90;5.30;;;9.80;99.90;;;;;;5019357;28;20193;-72
2021/10/27 06:12:31;;;;;;;6.93;4.90;;;9.80;99.90;;;;;;5014406;28;20894;-72
2021/10/27 06:14:57;;;;;;;7.20;4.90;;;9.90;99.90;;;;;;5018100;28;20476;-77
2021/10/27 06:17:23;;;;;;;6.03;5.13;;;10.10;99.90;;;;;;5017095;28;20895;-73
2021/10/27 06:19:52;;;;;;;7.50;5.50;;;10.40;99.90;;;;;;5015190;28;20497;-74
2021/10/27 06:22:19;;;;;;;7.67;4.20;;;10.30;99.90;;;;;;5020759;28;21035;-73
2021/10/27 06:24:45;;;;;;;5.17;4.33;;;10.40;99.90;;;;;;5021517;28;21009;-75
2021/10/27 06:27:11;;;;;;;6.63;4.50;;;10.30;99.90;;;;;;5020509;28;20522;-72
2021/10/27 06:29:44;;;;;;;9.63;4.70;;;10.50;99.90;;;;;;5019248;28;20681;-74
2021/10/27 06:34:51;;;;;;;5.87;4.47;;;10.40;99.90;;;;;;5016568;28;20438;-73
2021/10/27 06:48:04;;;;;;;5.50;4.60;;;10.30;99.90;;;;;;5019868;28;20489;-75
2021/10/27 06:50:30;;;;;;;9.40;3.80;;;10.20;99.90;;;;;;5019977;28;20440;-75
2021/10/27 06:52:56;;;;;;;9.53;5.10;;;10.30;99.90;;;;;;5020066;28;20534;-75
2021/10/27 06:55:22;;;;;;;6.77;4.60;;;10.20;99.90;;;;;;5015682;28;20312;-74
2021/10/27 06:57:48;;;;;;;5.07;4.57;;;10.30;99.90;;;;;;5022737;28;20213;-74
2021/10/27 07:00:58;;;;;;;8.30;5.10;;;10.30;99.90;;;;;;5019116;28;20213;-74
2021/10/27 07:16:21;;;;;;;7.43;4.53;;;10.00;99.90;;;;;;5017440;28;20869;-74
2021/10/27 07:18:47;;;;;;;4.13;3.53;;;10.00;99.90;;;;;;5007546;28;20471;-74
2021/10/27 07:21:12;;;;;;;4.40;4.00;;;10.20;99.90;;;;;;5020713;28;20658;-75
2021/10/27 07:23:40;;;;;;;4.27;3.60;;;10.30;99.90;;;;;;5019033;28;20181;-76
2021/10/27 07:26:06;;;;;;;4.03;3.63;;;10.30;99.90;;;;;;4999741;28;20624;-74
2021/10/27 07:28:32;;;;;;;4.37;3.80;;;10.50;99.90;;;;;;5018394;28;20459;-75
2021/10/27 07:31:00;;;;;;;4.70;4.00;;;10.60;99.90;;;;;;5016606;28;20439;-74
2021/10/27 07:33:28;;;;;;;6.53;3.90;;;10.70;99.90;;;;;;5018946;28;20425;-74
2021/10/27 07:41:11;;;;;;;7.43;4.17;;;10.30;99.90;;;;;;5019799;28;20449;-74
2021/10/27 07:43:37;;;;;;;5.90;4.47;;;10.20;99.90;;;;;;5021430;28;20500;-74
2021/10/27 07:46:03;;;;;;;7.00;4.63;;;10.10;99.90;;;;;;5015603;28;20870;-76
2021/10/27 07:48:30;;;;;;;7.00;4.73;;;10.20;99.90;;;;;;5020800;28;20956;-73
2021/10/27 07:50:58;;;;;;;7.50;4.20;;;10.40;99.90;;;;;;5024414;28;20431;-75
2021/10/27 07:53:24;;;;;;;8.73;4.70;;;10.30;99.90;;;;;;5022746;28;21258;-75
2021/10/27 07:55:51;;;;;;;5.60;4.57;;;10.60;99.90;;;;;;5017070;28;21001;-74
2021/10/27 07:58:25;;;;;;;4.70;3.90;;;10.70;99.90;;;;;;5003574;28;20439;-76
2021/10/27 08:00:57;;;;;;;5.50;4.57;;;10.80;99.90;;;;;;5014492;28;20439;-75
2021/10/27 08:03:23;;;;;;;6.37;4.20;;;10.70;99.90;;;;;;5022007;28;20458;-74
2021/10/27 08:05:49;;;;;;;7.90;4.70;;;10.80;99.90;;;;;;5006461;28;20435;-74
2021/10/27 08:08:19;;;;;;;5.77;4.70;;;10.90;99.90;;;;;;5022004;28;20491;-75
2021/10/27 08:10:45;;;;;;;10.00;5.37;;;10.90;99.90;;;;;;5022644;28;20542;-75
2021/10/27 08:13:11;;;;;;;6.30;4.00;;;10.80;99.90;;;;;;5023804;28;20522;-74
2021/10/27 08:15:37;;;;;;;5.30;3.77;;;10.90;99.90;;;;;;5025953;28;20223;-74
2021/10/27 08:18:08;;;;;;;6.30;4.10;;;11.10;99.90;;;;;;5019755;28;20316;-75
2021/10/27 08:20:33;;;;;;;5.10;4.40;;;11.20;99.90;;;;;;5022763;28;20840;-74
2021/10/27 08:23:02;;;;;;;8.30;5.10;;;11.30;99.90;;;;;;5022108;28;20435;-74
2021/10/27 08:25:34;;;;;;;6.57;4.60;;;11.40;99.90;;;;;;5022457;28;20192;-75
2021/10/27 08:28:09;;;;;;;7.63;4.53;;;11.50;99.90;;;;;;5020804;28;20493;-74
2021/10/27 08:30:46;;;;;;;6.10;4.53;;;11.40;99.90;;;;;;5010075;28;20860;-75
2021/10/27 08:33:25;;;;;;;8.90;5.80;;;11.30;99.90;;;;;;4991390;28;20969;-72
2021/10/27 08:35:51;;;;;;;5.03;4.30;;;11.40;99.90;;;;;;5023256;28;20440;-72
2021/10/27 08:38:17;;;;;;;5.97;5.10;;;11.50;99.90;;;;;;5021411;28;20486;-72
2021/10/27 08:40:44;;;;;;;6.00;4.70;;;11.30;99.90;;;;;;5004652;28;20983;-71
2021/10/27 08:43:11;;;;;;;6.07;5.07;;;11.50;99.90;;;;;;5021892;28;20608;-71
2021/10/27 08:45:39;;;;;;;8.93;4.93;;;11.40;99.90;;;;;;5020941;28;20430;-72
2021/10/27 08:48:09;;;;;;;6.37;5.13;;;11.40;99.90;;;;;;5025987;28;20444;-72
2021/10/27 08:50:35;;;;;;;7.30;4.90;;;11.50;99.90;;;;;;5019652;28;20468;-69
2021/10/27 08:53:02;;;;;;;7.23;4.90;;;11.60;99.90;;;;;;5019033;28;20524;-74
2021/10/27 08:55:29;;;;;;;6.20;5.30;;;11.70;99.90;;;;;;5026960;28;20435;-73
2021/10/27 08:57:55;;;;;;;7.40;5.43;;;11.80;99.90;;;;;;5019882;28;20451;-73
2021/10/27 09:00:29;;;;;;;6.10;5.13;;;11.70;99.90;;;;;;5022814;28;20475;-72
2021/10/27 09:03:07;;;;;;;4.90;4.30;;;11.80;99.90;;;;;;5024946;28;21223;-71
2021/10/27 09:05:51;;;;;;;8.70;5.20;;;11.90;99.90;;;;;;5023978;28;20416;-72
2021/10/27 09:37:22;;;;;;;5.70;4.80;;;12.70;99.90;;;;;;5020266;28;20427;-72
2021/10/27 09:39:47;;;;;;;5.70;4.60;;;12.60;99.90;;;;;;5016637;28;20570;-71
2021/10/27 10:04:10;;;;;;;5.60;4.33;;;13.70;99.90;;;;;;5019923;28;20515;-72
2021/10/27 10:06:38;;;;;;;5.43;4.13;;;13.70;99.90;;;;;;5018593;28;20970;-72
2021/10/27 10:09:05;;;;;;;6.87;4.10;;;13.80;99.90;;;;;;5019051;28;20480;-71
2021/10/27 10:11:31;;;;;;;6.07;4.47;;;13.80;99.90;;;;;;4991381;28;20478;-72
2021/10/27 10:14:01;;;;;;;5.27;4.50;;;14.00;99.90;;;;;;5020972;28;20431;-72
2021/10/27 10:16:28;;;;;;;5.50;3.70;;;14.30;99.90;;;;;;5018991;28;20455;-72
2021/10/27 10:18:59;;;;;;;9.30;5.23;;;14.40;99.90;;;;;;5022308;28;20475;-72
2021/10/27 10:21:29;;;;;;;5.73;4.47;;;14.40;99.90;;;;;;5023383;28;20427;-73
2021/10/27 10:24:17;;;;;;;7.70;4.87;;;14.40;99.90;;;;;;5020522;28;20525;-72
2021/10/27 10:26:46;;;;;;;5.43;4.23;;;14.50;99.90;;;;;;5020763;28;20522;-72
2021/10/27 10:29:42;;;;;;;5.33;4.00;;;14.50;99.90;;;;;;5025909;28;21175;-73
2021/10/27 10:32:22;;;;;;;10.43;5.00;;;14.60;99.90;;;;;;5018952;28;20900;-71
2021/10/27 10:34:53;;;;;;;8.47;4.90;;;14.60;99.90;;;;;;5024126;28;20445;-72
2021/10/27 10:57:56;;;;;;;5.37;4.20;;;15.20;99.90;;;;;;5025046;28;20515;-73
2021/10/27 11:41:53;;;;;;;3.80;2.53;;;17.00;99.90;;;;;;5024905;28;20481;-74
2021/10/27 11:45:04;;;;;;;6.57;2.70;;;18.20;99.90;;;;;;5022875;28;20447;-75
2021/10/27 11:47:43;;;;;;;5.23;3.07;;;19.70;99.90;;;;;;5021573;28;20516;-75
2021/10/27 11:50:13;;;;;;;2.87;2.53;;;21.50;99.90;;;;;;5028919;28;20938;-74
2021/10/27 11:52:40;;;;;;;4.93;2.87;;;22.60;99.90;;;;;;5023815;28;20934;-74
2021/10/27 11:55:11;;;;;;;4.03;2.47;;;23.30;99.90;;;;;;5022753;28;20790;-76
2021/10/27 11:57:38;;;;;;;4.20;3.00;;;23.90;99.90;;;;;;5023356;28;20439;-73
2021/10/27 12:00:20;;;;;;;2.67;2.30;;;24.20;99.90;;;;;;5025478;28;20981;-74
2021/10/27 12:02:52;;;;;;;2.87;2.33;;;24.90;99.90;;;;;;5024984;28;20541;-72
2021/10/27 12:11:14;;;;;;;2.80;2.50;;;28.00;97.50;;;;;;5025416;28;20438;-72
2021/10/27 12:21:33;;;;;;;2.93;2.27;;;30.70;81.00;;;;;;5108384;22;20517;-63
2021/10/27 12:29:59;;;;;;;2.53;2.20;;;32.00;71.00;;;;;;5047329;23;20254;-64
2021/10/27 12:33:14;;;;;;;2.27;2.03;;;33.00;66.70;;;;;;5041503;22;20498;-65
2021/10/27 12:42:11;;;;;;;3.07;2.77;;;33.10;58.70;;;;;;5067399;22;20484;-62
2021/10/27 12:52:27;;;;;;;3.33;3.03;;;32.80;57.50;;;;;;5028950;23;20486;-60
2021/10/27 13:03:53;;;;;;;5.70;2.50;;;32.40;56.10;;;;;;4943238;26;20911;-59
2021/10/27 13:08:54;;;;;;;2.90;2.60;;;30.80;57.50;;;;;;5067227;22;21111;31
2021/10/27 13:17:00;;;;;;;2.60;2.40;;;30.20;60.00;;;;;;5009189;22;20618;-59
2021/10/27 13:29:59;;;;;;;2.57;2.20;;;29.40;61.00;;;;;;5004754;28;20547;-76
2021/10/27 13:32:30;;;;;;;2.70;2.20;;;29.10;60.10;;;;;;4996813;28;20444;-77
2021/10/27 13:34:56;;;;;;;3.10;2.40;;;28.40;61.60;;;;;;5003961;28;20535;-77
2021/10/27 13:37:24;;;;;;;4.13;2.60;;;28.60;62.20;;;;;;5006684;28;20531;-78
2021/10/27 13:39:51;;;;;;;3.47;3.17;;;28.10;63.00;;;;;;5004159;28;20213;-78
2021/10/27 13:42:24;;;;;;;2.80;2.60;;;28.00;62.70;;;;;;5003056;28;21180;-77
2021/10/27 14:06:20;;;;;;;2.50;2.30;;;24.00;73.60;;;;;;5009386;28;20419;-77
2021/10/27 14:16:34;;;;;;;2.63;2.40;;;22.40;79.90;;;;;;4998606;28;20192;-78
2021/10/27 15:21:58;;;;;;;6.27;2.73;;;19.60;92.50;;;;;;5004852;28;20494;-77
2021/10/27 15:24:35;;;;;;;5.20;2.80;;;19.50;92.70;;;;;;5008563;28;20470;-78
2021/10/27 15:43:20;;;;;;;4.50;2.87;;;19.10;94.80;;;;;;4990181;28;20467;-79
2021/10/27 15:51:15;;;;;;;3.87;2.80;;;18.90;96.00;;;;;;5002397;28;20505;-77
2021/10/27 15:53:41;;;;;;;3.60;2.57;;;18.90;96.30;;;;;;5003680;28;20896;-77
2021/10/27 15:56:07;;;;;;;2.87;2.40;;;18.90;96.50;;;;;;5000227;28;20497;-77
2021/10/27 15:58:33;;;;;;;7.20;2.83;;;18.80;96.60;;;;;;5006603;28;20244;-77
2021/10/27 16:00:59;;;;;;;2.80;2.47;;;18.90;97.10;;;;;;5003977;28;20475;-77
2021/10/27 16:03:25;;;;;;;4.40;2.70;;;18.70;97.30;;;;;;5005744;28;20279;-78
2021/10/27 16:05:53;;;;;;;3.00;2.40;;;18.60;97.60;;;;;;5001546;28;20452;-77
2021/10/27 16:08:21;;;;;;;3.80;2.60;;;18.60;98.00;;;;;;5001026;28;20627;-75
2021/10/27 16:10:49;;;;;;;4.20;2.67;;;18.50;98.30;;;;;;4986579;28;20864;-76
2021/10/27 16:13:15;;;;;;;3.60;3.27;;;18.50;98.50;;;;;;5003168;28;20452;-77
2021/10/27 16:15:51;;;;;;;3.97;2.90;;;18.40;98.90;;;;;;4986257;28;21505;-76
2021/10/27 16:18:18;;;;;;;3.03;2.73;;;18.40;99.20;;;;;;5003795;28;20196;-76
2021/10/27 16:20:45;;;;;;;3.90;3.60;;;18.40;99.50;;;;;;5006084;28;20478;-77
2021/10/27 16:23:12;;;;;;;3.50;3.03;;;18.30;99.80;;;;;;5002817;28;21012;-76
2021/10/27 16:25:39;;;;;;;4.47;3.40;;;18.30;99.90;;;;;;4993885;28;20448;-76
2021/10/27 16:28:06;;;;;;;4.37;3.20;;;18.20;99.90;;;;;;5000429;28;20469;-76
2021/10/27 16:30:32;;;;;;;3.70;3.20;;;18.10;99.90;;;;;;4994636;28;20463;-76
2021/10/27 16:32:59;;;;;;;3.60;3.20;;;18.10;99.90;;;;;;5007127;28;20463;-75
2021/10/27 16:35:25;;;;;;;5.87;3.70;;;18.00;99.90;;;;;;4998347;28;20456;-76
2021/10/27 16:37:51;;;;;;;5.47;3.97;;;18.00;99.90;;;;;;5004306;28;21185;-77
2021/10/27 16:40:17;;;;;;;4.00;3.40;;;17.90;99.90;;;;;;5003734;28;20463;-77
2021/10/27 16:42:43;;;;;;;4.90;3.53;;;17.80;99.90;;;;;;5004036;28;20470;-75
2021/10/27 16:45:11;;;;;;;8.67;3.83;;;17.80;99.90;;;;;;5005801;28;20435;-75
2021/10/27 16:47:40;;;;;;;4.80;3.60;;;17.70;99.90;;;;;;4998837;28;20241;-76
2021/10/27 16:50:09;;;;;;;5.40;3.50;;;17.60;99.90;;;;;;5004981;28;20817;-76
2021/10/27 16:52:35;;;;;;;4.07;3.20;;;17.60;99.90;;;;;;5001212;28;20472;-74
2021/10/27 16:55:03;;;;;;;4.43;2.83;;;17.40;99.90;;;;;;4998044;28;20436;-76
2021/10/27 16:57:29;;;;;;;6.50;3.50;;;17.40;99.90;;;;;;4999724;28;20436;-76
2021/10/27 16:59:55;;;;;;;5.30;3.03;;;17.30;99.90;;;;;;5002598;28;20517;-76
2021/10/27 17:02:21;;;;;;;6.37;3.03;;;17.30;99.90;;;;;;4996215;28;21056;-76
2021/10/27 17:04:47;;;;;;;3.50;3.13;;;17.30;99.90;;;;;;5003989;28;20440;-75
2021/10/27 17:07:14;;;;;;;3.37;2.90;;;17.30;99.90;;;;;;5002502;28;20205;-77
2021/10/27 17:09:40;;;;;;;5.07;4.00;;;17.30;99.90;;;;;;4997267;28;20259;-76
2021/10/27 17:12:07;;;;;;;5.67;3.30;;;17.20;99.90;;;;;;4995699;28;20468;-75
2021/10/27 17:14:34;;;;;;;5.10;3.77;;;17.10;99.90;;;;;;5000561;28;20593;-77
2021/10/27 17:17:01;;;;;;;6.50;3.87;;;17.10;99.90;;;;;;5002760;28;20436;-76
2021/10/27 17:19:26;;;;;;;4.30;3.40;;;17.00;99.90;;;;;;5003632;28;20473;-75
2021/10/27 17:21:52;;;;;;;4.37;3.97;;;17.00;99.90;;;;;;5003237;28;20525;-77
2021/10/27 17:24:18;;;;;;;4.53;3.73;;;17.00;99.90;;;;;;4999475;28;20209;-76
2021/10/27 17:26:48;;;;;;;4.73;4.23;;;16.90;99.90;;;;;;5002818;28;20275;-76
2021/10/27 17:29:14;;;;;;;5.77;5.20;;;16.80;99.90;;;;;;5001282;28;20440;-78
2021/10/27 17:31:40;;;;;;;6.10;4.20;;;16.80;99.90;;;;;;5000924;28;20466;-78
2021/10/27 17:34:06;;;;;;;6.80;4.30;;;16.80;99.90;;;;;;4998375;28;20207;-76
2021/10/27 17:36:32;;;;;;;5.53;3.80;;;16.80;99.90;;;;;;4998014;28;20467;-76
2021/10/27 17:38:59;;;;;;;6.70;3.90;;;16.70;99.90;;;;;;4987130;28;20531;-76
2021/10/27 17:41:25;;;;;;;4.50;3.30;;;16.70;99.90;;;;;;5002128;28;20986;-75
2021/10/27 17:43:53;;;;;;;5.77;3.77;;;16.60;99.90;;;;;;5000659;28;20440;-76
2021/10/27 17:46:21;;;;;;;4.60;4.10;;;16.60;99.90;;;;;;4984274;28;20469;-76
2021/10/27 17:48:59;;;;;;;5.47;4.27;;;16.60;99.90;;;;;;5000802;28;20972;-76
2021/10/27 17:51:26;;;;;;;5.87;4.20;;;16.50;99.90;;;;;;5003800;28;20444;-75
2021/10/27 17:59:22;;;;;;;4.30;3.90;;;16.40;99.90;;;;;;5002402;28;20489;-76
2021/10/27 18:01:49;;;;;;;7.07;4.60;;;16.30;99.90;;;;;;5002289;28;20460;-76
2021/10/27 18:04:15;;;;;;;7.83;4.00;;;16.30;99.90;;;;;;5002877;28;20483;-75
2021/10/27 18:06:41;;;;;;;5.30;4.67;;;16.20;99.90;;;;;;5002195;28;21104;-76
2021/10/27 18:09:13;;;;;;;4.73;4.00;;;16.10;99.90;;;;;;5002468;28;20493;-76
2021/10/27 18:11:41;;;;;;;4.67;4.20;;;16.10;99.90;;;;;;5004060;28;20452;-76
2021/10/27 18:14:19;;;;;;;6.23;5.03;;;16.10;99.90;;;;;;5003439;28;20436;-76
2021/10/27 18:19:38;;;;;;;5.73;5.07;;;16.00;99.90;;;;;;4998825;28;20518;-76
2021/10/27 18:25:11;;;;;;;6.77;4.77;;;16.00;99.90;;;;;;4997999;28;20450;-76
2021/10/27 18:41:03;;;;;;;9.20;5.30;;;15.80;99.90;;;;;;5000305;28;20582;-76